createdAt,value
2019-02-07T00:03:50.923Z,4.01
2019-02-07T00:09:45.907Z,3.45
2019-02-07T00:15:40.995Z,3.43
2019-02-07T00:21:35.984Z,3.9
2019-02-07T00:27:30.955Z,3.3
2019-02-07T00:33:25.982Z,3.62
2019-02-07T00:39:20.943Z,2.71
2019-02-07T00:45:16.032Z,3.96
2019-02-07T00:51:10.947Z,3.1
2019-02-07T00:57:05.967Z,3.06
2019-02-07T01:03:01.013Z,2.75
2019-02-07T01:08:55.960Z,2.95
2019-02-07T01:15:01.410Z,3.93
2019-02-07T01:20:45.966Z,2.87
2019-02-07T01:26:40.976Z,3.98
2019-02-07T01:32:35.981Z,3.53
2019-02-07T01:38:30.991Z,3.61
2019-02-07T01:44:26.001Z,3.41
2019-02-07T01:50:21.042Z,4.24
2019-02-07T01:56:16.020Z,3.95
2019-02-07T02:02:11.018Z,3.53
2019-02-07T02:08:06.053Z,3.25
2019-02-07T02:14:01.006Z,2.76
2019-02-07T02:19:56.032Z,3.23
2019-02-07T02:25:51.031Z,3.33
2019-02-07T02:31:46.030Z,3.39
2019-02-07T02:37:41.019Z,2.98
2019-02-07T02:43:36.053Z,3.87
2019-02-07T02:49:31.064Z,2.55
2019-02-07T02:55:26.047Z,2.82
2019-02-07T03:01:21.062Z,3.57
2019-02-07T03:07:16.083Z,4.3
2019-02-07T03:13:11.064Z,2.75
2019-02-07T03:19:06.072Z,4.43
2019-02-07T03:25:01.062Z,4.03
2019-02-07T03:30:56.132Z,2.58
2019-02-07T03:36:51.128Z,3.05
2019-02-07T03:42:46.073Z,3.77
2019-02-07T03:48:41.077Z,3.67
2019-02-07T03:54:36.098Z,2.83
2019-02-07T04:00:31.121Z,4.44
2019-02-07T04:06:26.102Z,3.16
2019-02-07T04:12:21.119Z,3.6
2019-02-07T04:18:16.181Z,3.77
2019-02-07T04:24:11.143Z,7.86
2019-02-07T04:30:06.179Z,4.39
2019-02-07T04:36:01.165Z,3.66
2019-02-07T04:41:56.201Z,2.86
2019-02-07T04:47:51.170Z,5.35
2019-02-07T04:53:46.175Z,4.5
2019-02-07T04:59:41.175Z,4.85
2019-02-07T05:05:36.168Z,4.17
2019-02-07T05:11:31.171Z,4.25
2019-02-07T05:17:26.169Z,4.41
2019-02-07T05:23:21.166Z,5.52
2019-02-07T05:29:16.179Z,4.87
2019-02-07T05:35:11.175Z,4.34
2019-02-07T05:41:06.200Z,5.39
2019-02-07T05:47:01.222Z,5.08
2019-02-07T05:52:56.200Z,4.8
2019-02-07T05:58:51.201Z,3.6
2019-02-07T06:04:46.220Z,4.79
2019-02-07T06:10:41.207Z,7.4
2019-02-07T06:16:36.213Z,5.19
2019-02-07T06:22:31.226Z,5.43
2019-02-07T06:28:26.244Z,3.6
2019-02-07T06:34:28.550Z,5.58
2019-02-07T06:40:16.246Z,4.29
2019-02-07T06:46:11.234Z,8.41
2019-02-07T06:52:06.269Z,15.23
2019-02-07T06:58:01.249Z,13.21
2019-02-07T07:03:57.714Z,4.32
2019-02-07T07:09:51.275Z,5.48
2019-02-07T07:15:46.247Z,6.87
2019-02-07T07:21:41.300Z,9.2
2019-02-07T07:27:36.280Z,8.13
2019-02-07T07:33:31.275Z,11.2
2019-02-07T07:39:26.319Z,5.65
2019-02-07T07:45:21.282Z,7.63
2019-02-07T07:51:16.354Z,8.85
2019-02-07T07:57:11.282Z,9.43
2019-02-07T08:03:06.284Z,9.44
2019-02-07T08:09:01.357Z,9.18
2019-02-07T08:14:56.340Z,8.36
2019-02-07T08:20:51.400Z,6.71
2019-02-07T08:26:46.320Z,8.02
2019-02-07T08:32:41.324Z,10.76
2019-02-07T08:38:36.375Z,11.13
2019-02-07T08:44:31.371Z,8.18
2019-02-07T08:50:26.360Z,11.77
2019-02-07T08:56:21.383Z,13.23
2019-02-07T09:02:16.364Z,13.57
2019-02-07T09:08:11.405Z,13.47
2019-02-07T09:14:06.364Z,12.47
2019-02-07T09:20:01.366Z,10.26
2019-02-07T09:25:56.389Z,12.1
2019-02-07T09:31:51.375Z,12.91
2019-02-07T09:37:46.397Z,13.65
2019-02-07T09:43:41.380Z,13.8
2019-02-07T09:49:36.423Z,12.95
2019-02-07T09:55:31.417Z,11.46
2019-02-07T10:01:26.423Z,13.32
2019-02-07T10:07:21.420Z,12.28
2019-02-07T10:13:16.428Z,18.51
2019-02-07T10:19:11.396Z,13.12
2019-02-07T10:25:06.476Z,10.84
2019-02-07T10:31:01.425Z,17.06
2019-02-07T10:36:56.439Z,12.12
2019-02-07T10:42:51.438Z,13.46
2019-02-07T10:48:46.462Z,14.98
2019-02-07T10:54:41.446Z,14.18
2019-02-07T11:00:36.440Z,17
2019-02-07T11:06:31.441Z,14.77
2019-02-07T11:12:26.464Z,10.74
2019-02-07T11:18:21.464Z,12.15
2019-02-07T11:24:16.480Z,12.23
2019-02-07T11:30:11.515Z,9.92
2019-02-07T11:36:06.510Z,13.29
2019-02-07T11:42:01.498Z,9.23
2019-02-07T11:47:56.495Z,15.09
2019-02-07T11:53:51.504Z,10.3
2019-02-07T11:59:46.508Z,10.94
2019-02-07T12:05:41.550Z,11.95
2019-02-07T12:11:36.516Z,10.17
2019-02-07T12:17:31.506Z,10.61
2019-02-07T12:23:26.525Z,11.06
2019-02-07T12:29:21.528Z,9.09
2019-02-07T12:35:16.521Z,10.1
2019-02-07T12:41:11.533Z,9.99
2019-02-07T12:47:06.544Z,14.37
2019-02-07T12:53:01.554Z,10.52
2019-02-07T12:58:56.599Z,10.7
2019-02-07T13:04:51.676Z,10.5
2019-02-07T13:10:46.577Z,8.14
2019-02-07T13:16:41.554Z,8.36
2019-02-07T13:22:36.624Z,8.38
2019-02-07T13:28:31.609Z,6.95
2019-02-07T13:34:26.587Z,9.45
2019-02-07T13:40:21.593Z,6.24
2019-02-07T13:46:16.593Z,7.81
2019-02-07T13:52:11.622Z,8.37
2019-02-07T13:58:06.599Z,7.83
2019-02-07T14:04:01.625Z,9.07
2019-02-07T14:09:56.621Z,10.25
2019-02-07T14:15:51.617Z,8.28
2019-02-07T14:21:46.656Z,10.27
2019-02-07T14:27:41.730Z,7.92
2019-02-07T14:33:36.636Z,8.02
2019-02-07T14:39:31.645Z,12.95
2019-02-07T14:45:26.655Z,7.93
2019-02-07T14:51:21.656Z,6.7
2019-02-07T14:57:16.698Z,6.5
2019-02-07T15:03:11.690Z,10.17
2019-02-07T15:09:06.681Z,10.71
2019-02-07T15:15:01.716Z,8.63
2019-02-07T15:20:56.696Z,9.55
2019-02-07T15:26:51.708Z,11.11
2019-02-07T15:32:46.715Z,13.13
2019-02-07T15:38:41.698Z,9.43
2019-02-07T15:44:36.732Z,9.45
2019-02-07T15:50:37.491Z,9.59
2019-02-07T15:56:26.720Z,14.34
2019-02-07T16:02:21.752Z,9.97
2019-02-07T16:08:16.738Z,11.74
2019-02-07T16:14:11.749Z,13.66
2019-02-07T16:20:06.785Z,15.18
2019-02-07T16:26:01.799Z,14.3
2019-02-07T16:31:56.746Z,13.63
2019-02-07T16:37:51.758Z,14.81
2019-02-07T16:43:46.772Z,11.74
2019-02-07T16:49:41.770Z,12.21
2019-02-07T16:55:36.754Z,11.93
2019-02-07T17:01:31.777Z,10.62
2019-02-07T17:07:26.817Z,14.57
2019-02-07T17:13:21.830Z,16.6
2019-02-07T17:19:16.821Z,15.3
2019-02-07T17:25:11.844Z,14.67
2019-02-07T17:31:06.807Z,12.66
2019-02-07T17:37:01.806Z,13.36
2019-02-07T17:42:56.820Z,15.18
2019-02-07T17:48:51.859Z,14.05
2019-02-07T17:54:46.858Z,20.03
2019-02-07T18:00:41.910Z,22.86
2019-02-07T18:06:36.864Z,22.82
2019-02-07T18:12:31.853Z,24.46
2019-02-07T18:18:26.851Z,19.01
2019-02-07T18:24:21.845Z,19.57
2019-02-07T18:30:16.895Z,18.24
2019-02-07T18:36:11.864Z,21.62
2019-02-07T18:42:06.861Z,18.38
2019-02-07T18:48:01.902Z,16.44
2019-02-07T18:53:56.881Z,21.45
2019-02-07T18:59:51.880Z,18.63
2019-02-07T19:05:46.890Z,23.54
2019-02-07T19:11:41.892Z,26.3
2019-02-07T19:17:36.903Z,25.38
2019-02-07T19:23:31.900Z,25.66
2019-02-07T19:29:26.918Z,29
2019-02-07T19:35:21.910Z,29.81
2019-02-07T19:41:16.947Z,28.76
2019-02-07T19:47:11.925Z,27.72
2019-02-07T19:53:06.925Z,28.86
2019-02-07T19:59:01.958Z,26.22
2019-02-07T20:04:56.930Z,30.03
2019-02-07T20:10:51.951Z,26.3
2019-02-07T20:16:47.031Z,32.99
2019-02-07T20:22:41.957Z,27.85
2019-02-07T20:28:36.959Z,26.46
2019-02-07T20:34:31.986Z,25.42
2019-02-07T20:40:26.985Z,28.11
2019-02-07T20:46:21.973Z,29.71
2019-02-07T20:52:16.985Z,25.03
2019-02-07T20:58:11.985Z,24.2
2019-02-07T21:04:06.980Z,22.66
2019-02-07T21:10:02.017Z,22.36
2019-02-07T21:15:56.990Z,24.94
2019-02-07T21:21:52.009Z,24.66
2019-02-07T21:27:47.045Z,22.31
2019-02-07T21:33:42.026Z,26.86
2019-02-07T21:39:37.048Z,24.51
2019-02-07T21:45:32.068Z,20.96
2019-02-07T21:51:27.054Z,22.16
2019-02-07T21:57:22.043Z,22.48
2019-02-07T22:03:17.046Z,23.18
2019-02-07T22:09:12.056Z,21.07
2019-02-07T22:15:07.060Z,22.64
2019-02-07T22:21:02.045Z,19.46
2019-02-07T22:26:57.055Z,20.27
2019-02-07T22:32:52.099Z,21.83
2019-02-07T22:38:47.074Z,23.78
2019-02-07T22:44:42.096Z,20.35
2019-02-07T22:50:37.091Z,27.38
2019-02-07T22:56:32.077Z,21.8
2019-02-07T23:02:27.112Z,20.41
2019-02-07T23:08:22.090Z,32.6
2019-02-07T23:14:17.115Z,20.87
2019-02-07T23:20:12.129Z,20.24
2019-02-07T23:26:07.181Z,23.39
2019-02-07T23:32:03.386Z,21.22
2019-02-07T23:37:57.117Z,19.94
2019-02-07T23:43:52.124Z,20.86
2019-02-07T23:49:47.148Z,20.89
2019-02-07T23:55:42.156Z,21.33
